sensor_id;sensor_type;location;lat;lon;timestamp;temperature;humidity
29295;DHT22;16305;48.566;8.846;2023-01-10T00:00:19;2.80;99.90
29295;DHT22;16305;48.566;8.846;2023-01-10T00:02:45;2.80;99.90
29295;DHT22;16305;48.566;8.846;2023-01-10T00:05:10;2.80;99.90
29295;DHT22;16305;48.566;8.846;2023-01-10T00:07:36;2.80;99.90
29295;DHT22;16305;48.566;8.846;2023-01-10T00:10:02;2.80;99.90
29295;DHT22;16305;48.566;8.846;2023-01-10T00:12:27;2.70;99.90
29295;DHT22;16305;48.566;8.846;2023-01-10T00:15:11;2.80;99.90
29295;DHT22;16305;48.566;8.846;2023-01-10T00:17:37;2.80;99.90
29295;DHT22;16305;48.566;8.846;2023-01-10T00:20:03;2.80;99.90
29295;DHT22;16305;48.566;8.846;2023-01-10T00:22:28;2.80;99.90
29295;DHT22;16305;48.566;8.846;2023-01-10T00:24:54;2.80;99.90
29295;DHT22;16305;48.566;8.846;2023-01-10T00:27:20;2.80;99.90
29295;DHT22;16305;48.566;8.846;2023-01-10T00:29:47;2.80;99.90
29295;DHT22;16305;48.566;8.846;2023-01-10T00:32:13;2.80;99.90
29295;DHT22;16305;48.566;8.846;2023-01-10T00:34:39;2.90;99.90
29295;DHT22;16305;48.566;8.846;2023-01-10T00:37:05;2.80;99.90
29295;DHT22;16305;48.566;8.846;2023-01-10T00:39:30;2.90;99.90
29295;DHT22;16305;48.566;8.846;2023-01-10T00:41:56;2.80;99.90
29295;DHT22;16305;48.566;8.846;2023-01-10T00:44:40;2.70;99.90
29295;DHT22;16305;48.566;8.846;2023-01-10T00:47:06;2.70;99.90
29295;DHT22;16305;48.566;8.846;2023-01-10T00:49:31;2.70;99.90
29295;DHT22;16305;48.566;8.846;2023-01-10T00:51:57;2.70;99.90
29295;DHT22;16305;48.566;8.846;2023-01-10T00:54:24;2.70;99.90
29295;DHT22;16305;48.566;8.846;2023-01-10T00:56:50;2.70;99.90
29295;DHT22;16305;48.566;8.846;2023-01-10T00:59:16;2.70;99.90
29295;DHT22;16305;48.566;8.846;2023-01-10T01:01:41;2.70;99.90
29295;DHT22;16305;48.566;8.846;2023-01-10T01:04:07;2.70;99.90
29295;DHT22;16305;48.566;8.846;2023-01-10T01:06:32;2.70;99.90
29295;DHT22;16305;48.566;8.846;2023-01-10T01:08:58;2.70;99.90
29295;DHT22;16305;48.566;8.846;2023-01-10T01:11:24;2.70;99.90
29295;DHT22;16305;48.566;8.846;2023-01-10T01:13:49;2.80;99.90
29295;DHT22;16305;48.566;8.846;2023-01-10T01:16:16;2.70;99.90
29295;DHT22;16305;48.566;8.846;2023-01-10T01:18:41;2.70;99.90
29295;DHT22;16305;48.566;8.846;2023-01-10T01:21:07;2.80;99.90
29295;DHT22;16305;48.566;8.846;2023-01-10T01:23:33;2.80;99.90
29295;DHT22;16305;48.566;8.846;2023-01-10T01:25:59;2.80;99.90
29295;DHT22;16305;48.566;8.846;2023-01-10T01:28:25;2.80;99.90
29295;DHT22;16305;48.566;8.846;2023-01-10T01:30:51;2.80;99.90
29295;DHT22;16305;48.566;8.846;2023-01-10T01:33:18;2.80;99.90
29295;DHT22;16305;48.566;8.846;2023-01-10T01:35:45;2.80;99.90
29295;DHT22;16305;48.566;8.846;2023-01-10T01:38:12;2.80;99.90
29295;DHT22;16305;48.566;8.846;2023-01-10T01:40:38;2.90;99.90
29295;DHT22;16305;48.566;8.846;2023-01-10T01:43:05;2.90;99.90
29295;DHT22;16305;48.566;8.846;2023-01-10T01:45:37;2.90;99.90
29295;DHT22;16305;48.566;8.846;2023-01-10T01:48:35;2.90;99.90
29295;DHT22;16305;48.566;8.846;2023-01-10T01:53:42;3.00;99.90
29295;DHT22;16305;48.566;8.846;2023-01-10T01:56:16;3.00;99.90
29295;DHT22;16305;48.566;8.846;2023-01-10T01:58:50;3.00;99.90
29295;DHT22;16305;48.566;8.846;2023-01-10T02:01:18;3.00;99.90
29295;DHT22;16305;48.566;8.846;2023-01-10T02:03:47;3.00;99.90
29295;DHT22;16305;48.566;8.846;2023-01-10T02:06:15;3.10;99.90
29295;DHT22;16305;48.566;8.846;2023-01-10T02:08:45;3.00;99.90
29295;DHT22;16305;48.566;8.846;2023-01-10T02:11:15;3.10;99.90
29295;DHT22;16305;48.566;8.846;2023-01-10T02:13:41;3.10;99.90
29295;DHT22;16305;48.566;8.846;2023-01-10T02:16:08;3.00;99.90
29295;DHT22;16305;48.566;8.846;2023-01-10T02:18:36;3.00;99.90
29295;DHT22;16305;48.566;8.846;2023-01-10T02:21:17;3.00;99.90
29295;DHT22;16305;48.566;8.846;2023-01-10T02:23:54;3.00;99.90
29295;DHT22;16305;48.566;8.846;2023-01-10T02:26:41;3.00;99.90
29295;DHT22;16305;48.566;8.846;2023-01-10T02:32:21;3.10;99.90
29295;DHT22;16305;48.566;8.846;2023-01-10T02:35:25;3.00;99.90
29295;DHT22;16305;48.566;8.846;2023-01-10T02:38:08;3.00;99.90
29295;DHT22;16305;48.566;8.846;2023-01-10T02:43:49;3.10;99.90
29295;DHT22;16305;48.566;8.846;2023-01-10T02:46:24;3.10;99.90
29295;DHT22;16305;48.566;8.846;2023-01-10T02:48:52;3.00;99.90
29295;DHT22;16305;48.566;8.846;2023-01-10T02:51:21;3.00;99.90
29295;DHT22;16305;48.566;8.846;2023-01-10T02:53:51;2.90;99.90
29295;DHT22;16305;48.566;8.846;2023-01-10T02:59:31;2.80;99.90
29295;DHT22;16305;48.566;8.846;2023-01-10T03:02:12;2.80;99.90
29295;DHT22;16305;48.566;8.846;2023-01-10T03:10:28;2.70;99.90
29295;DHT22;16305;48.566;8.846;2023-01-10T03:13:04;2.80;99.90
29295;DHT22;16305;48.566;8.846;2023-01-10T03:15:34;2.70;99.90
29295;DHT22;16305;48.566;8.846;2023-01-10T03:18:03;2.70;99.90
29295;DHT22;16305;48.566;8.846;2023-01-10T03:20:34;2.70;99.90
29295;DHT22;16305;48.566;8.846;2023-01-10T03:23:04;2.70;99.90
29295;DHT22;16305;48.566;8.846;2023-01-10T03:25:34;2.70;99.90
29295;DHT22;16305;48.566;8.846;2023-01-10T03:28:15;2.70;99.90
29295;DHT22;16305;48.566;8.846;2023-01-10T03:30:49;2.70;99.90
29295;DHT22;16305;48.566;8.846;2023-01-10T03:33:20;2.60;99.90
29295;DHT22;16305;48.566;8.846;2023-01-10T03:38:53;2.60;99.90
29295;DHT22;16305;48.566;8.846;2023-01-10T03:41:35;2.50;99.90
29295;DHT22;16305;48.566;8.846;2023-01-10T03:44:29;2.50;99.90
29295;DHT22;16305;48.566;8.846;2023-01-10T03:49:38;2.50;99.90
29295;DHT22;16305;48.566;8.846;2023-01-10T03:52:06;2.50;99.90
29295;DHT22;16305;48.566;8.846;2023-01-10T03:54:32;2.50;99.90
29295;DHT22;16305;48.566;8.846;2023-01-10T03:56:58;2.50;99.90
29295;DHT22;16305;48.566;8.846;2023-01-10T03:59:26;2.50;99.90
29295;DHT22;16305;48.566;8.846;2023-01-10T04:01:52;2.50;99.90
29295;DHT22;16305;48.566;8.846;2023-01-10T04:04:18;2.50;99.90
29295;DHT22;16305;48.566;8.846;2023-01-10T04:06:44;2.50;99.90
29295;DHT22;16305;48.566;8.846;2023-01-10T04:09:10;2.50;99.90
29295;DHT22;16305;48.566;8.846;2023-01-10T04:11:35;2.60;99.90
29295;DHT22;16305;48.566;8.846;2023-01-10T04:14:01;2.60;99.90
29295;DHT22;16305;48.566;8.846;2023-01-10T04:16:26;2.70;99.90
29295;DHT22;16305;48.566;8.846;2023-01-10T04:18:52;2.60;99.90
29295;DHT22;16305;48.566;8.846;2023-01-10T04:21:17;2.70;99.90
29295;DHT22;16305;48.566;8.846;2023-01-10T04:23:43;2.60;99.90
29295;DHT22;16305;48.566;8.846;2023-01-10T04:26:08;2.60;99.90
29295;DHT22;16305;48.566;8.846;2023-01-10T04:28:34;2.70;99.90
29295;DHT22;16305;48.566;8.846;2023-01-10T04:30:59;2.60;99.90
29295;DHT22;16305;48.566;8.846;2023-01-10T04:33:25;2.60;99.90
29295;DHT22;16305;48.566;8.846;2023-01-10T04:35:52;2.60;99.90
29295;DHT22;16305;48.566;8.846;2023-01-10T04:38:18;2.60;99.90
29295;DHT22;16305;48.566;8.846;2023-01-10T04:40:44;2.70;99.90
29295;DHT22;16305;48.566;8.846;2023-01-10T04:43:16;2.70;99.90
29295;DHT22;16305;48.566;8.846;2023-01-10T04:45:42;2.80;99.90
29295;DHT22;16305;48.566;8.846;2023-01-10T04:48:07;2.70;99.90
29295;DHT22;16305;48.566;8.846;2023-01-10T04:50:33;2.80;99.90
29295;DHT22;16305;48.566;8.846;2023-01-10T04:52:59;2.80;99.90
29295;DHT22;16305;48.566;8.846;2023-01-10T04:55:24;2.80;99.90
29295;DHT22;16305;48.566;8.846;2023-01-10T04:57:50;2.80;99.90
29295;DHT22;16305;48.566;8.846;2023-01-10T05:00:16;2.80;99.90
29295;DHT22;16305;48.566;8.846;2023-01-10T05:02:41;2.80;99.90
29295;DHT22;16305;48.566;8.846;2023-01-10T05:05:12;2.80;99.90
29295;DHT22;16305;48.566;8.846;2023-01-10T05:07:39;2.90;99.90
29295;DHT22;16305;48.566;8.846;2023-01-10T05:10:06;2.80;99.90
29295;DHT22;16305;48.566;8.846;2023-01-10T05:12:32;2.90;99.90
29295;DHT22;16305;48.566;8.846;2023-01-10T05:14:58;2.90;99.90
29295;DHT22;16305;48.566;8.846;2023-01-10T05:17:24;3.00;99.90
29295;DHT22;16305;48.566;8.846;2023-01-10T05:19:49;3.00;99.90
29295;DHT22;16305;48.566;8.846;2023-01-10T05:22:15;3.00;99.90
29295;DHT22;16305;48.566;8.846;2023-01-10T05:24:40;3.00;99.90
29295;DHT22;16305;48.566;8.846;2023-01-10T05:27:06;3.00;99.90
29295;DHT22;16305;48.566;8.846;2023-01-10T05:29:32;3.00;99.90
29295;DHT22;16305;48.566;8.846;2023-01-10T05:31:58;3.00;99.90
29295;DHT22;16305;48.566;8.846;2023-01-10T05:34:23;3.00;99.90
29295;DHT22;16305;48.566;8.846;2023-01-10T05:36:49;3.00;99.90
29295;DHT22;16305;48.566;8.846;2023-01-10T05:39:14;3.00;99.90
29295;DHT22;16305;48.566;8.846;2023-01-10T05:41:40;3.00;99.90
29295;DHT22;16305;48.566;8.846;2023-01-10T05:44:06;3.00;99.90
29295;DHT22;16305;48.566;8.846;2023-01-10T05:46:32;3.00;99.90
29295;DHT22;16305;48.566;8.846;2023-01-10T05:48:57;3.00;99.90
29295;DHT22;16305;48.566;8.846;2023-01-10T05:51:23;3.00;99.90
29295;DHT22;16305;48.566;8.846;2023-01-10T05:53:49;3.10;99.90
29295;DHT22;16305;48.566;8.846;2023-01-10T05:56:14;3.10;99.90
29295;DHT22;16305;48.566;8.846;2023-01-10T05:58:40;3.00;99.90
29295;DHT22;16305;48.566;8.846;2023-01-10T06:01:06;2.90;99.90
29295;DHT22;16305;48.566;8.846;2023-01-10T06:03:31;2.90;99.90
29295;DHT22;16305;48.566;8.846;2023-01-10T06:05:57;2.80;99.90
29295;DHT22;16305;48.566;8.846;2023-01-10T06:08:23;2.90;99.90
29295;DHT22;16305;48.566;8.846;2023-01-10T06:10:48;2.80;99.90
29295;DHT22;16305;48.566;8.846;2023-01-10T06:13:14;2.80;99.90
29295;DHT22;16305;48.566;8.846;2023-01-10T06:15:40;2.80;99.90
29295;DHT22;16305;48.566;8.846;2023-01-10T06:18:06;2.80;99.90
29295;DHT22;16305;48.566;8.846;2023-01-10T06:20:31;2.80;99.90
29295;DHT22;16305;48.566;8.846;2023-01-10T06:22:57;2.70;99.90
29295;DHT22;16305;48.566;8.846;2023-01-10T06:25:25;2.60;99.90
29295;DHT22;16305;48.566;8.846;2023-01-10T06:27:51;2.70;99.90
29295;DHT22;16305;48.566;8.846;2023-01-10T06:30:17;2.70;99.90
29295;DHT22;16305;48.566;8.846;2023-01-10T06:32:42;2.70;99.90
29295;DHT22;16305;48.566;8.846;2023-01-10T06:35:08;2.60;99.90
29295;DHT22;16305;48.566;8.846;2023-01-10T06:37:34;2.70;99.90
29295;DHT22;16305;48.566;8.846;2023-01-10T06:39:59;2.70;99.90
29295;DHT22;16305;48.566;8.846;2023-01-10T06:42:25;2.70;99.90
29295;DHT22;16305;48.566;8.846;2023-01-10T06:44:50;2.70;99.90
29295;DHT22;16305;48.566;8.846;2023-01-10T06:47:16;2.80;99.90
29295;DHT22;16305;48.566;8.846;2023-01-10T06:49:42;2.80;99.90
29295;DHT22;16305;48.566;8.846;2023-01-10T06:52:07;2.80;99.90
29295;DHT22;16305;48.566;8.846;2023-01-10T06:54:32;2.80;99.90
29295;DHT22;16305;48.566;8.846;2023-01-10T06:56:58;2.80;99.90
29295;DHT22;16305;48.566;8.846;2023-01-10T06:59:23;2.80;99.90
29295;DHT22;16305;48.566;8.846;2023-01-10T07:01:49;2.70;99.90
29295;DHT22;16305;48.566;8.846;2023-01-10T07:04:14;2.70;99.90
29295;DHT22;16305;48.566;8.846;2023-01-10T07:06:40;2.70;99.90
29295;DHT22;16305;48.566;8.846;2023-01-10T07:09:07;2.70;99.90
29295;DHT22;16305;48.566;8.846;2023-01-10T07:11:34;2.80;99.90
29295;DHT22;16305;48.566;8.846;2023-01-10T07:14:00;2.80;99.90
29295;DHT22;16305;48.566;8.846;2023-01-10T07:16:26;2.70;99.90
29295;DHT22;16305;48.566;8.846;2023-01-10T07:18:51;2.70;99.90
29295;DHT22;16305;48.566;8.846;2023-01-10T07:21:17;2.70;99.90
29295;DHT22;16305;48.566;8.846;2023-01-10T07:23:49;2.70;99.90
29295;DHT22;16305;48.566;8.846;2023-01-10T07:26:16;2.70;99.90
29295;DHT22;16305;48.566;8.846;2023-01-10T07:28:47;2.70;99.90
29295;DHT22;16305;48.566;8.846;2023-01-10T07:31:15;2.70;99.90
29295;DHT22;16305;48.566;8.846;2023-01-10T07:33:41;2.80;99.90
29295;DHT22;16305;48.566;8.846;2023-01-10T07:36:07;2.70;99.90
29295;DHT22;16305;48.566;8.846;2023-01-10T07:38:33;2.70;99.90
29295;DHT22;16305;48.566;8.846;2023-01-10T07:41:01;2.80;99.90
29295;DHT22;16305;48.566;8.846;2023-01-10T07:43:26;2.70;99.90
29295;DHT22;16305;48.566;8.846;2023-01-10T07:45:52;2.70;99.90
29295;DHT22;16305;48.566;8.846;2023-01-10T07:48:18;2.70;99.90
29295;DHT22;16305;48.566;8.846;2023-01-10T07:50:43;2.70;99.90
29295;DHT22;16305;48.566;8.846;2023-01-10T07:53:09;2.70;99.90
29295;DHT22;16305;48.566;8.846;2023-01-10T07:55:36;2.80;99.90
29295;DHT22;16305;48.566;8.846;2023-01-10T07:58:04;2.80;99.90
29295;DHT22;16305;48.566;8.846;2023-01-10T08:00:32;2.80;99.90
29295;DHT22;16305;48.566;8.846;2023-01-10T08:02:58;2.80;99.90
29295;DHT22;16305;48.566;8.846;2023-01-10T08:05:23;2.80;99.90
29295;DHT22;16305;48.566;8.846;2023-01-10T08:07:49;2.80;99.90
29295;DHT22;16305;48.566;8.846;2023-01-10T08:10:15;2.80;99.90
29295;DHT22;16305;48.566;8.846;2023-01-10T08:12:40;2.80;99.90
29295;DHT22;16305;48.566;8.846;2023-01-10T08:15:06;2.80;99.90
29295;DHT22;16305;48.566;8.846;2023-01-10T08:17:35;2.80;99.90
29295;DHT22;16305;48.566;8.846;2023-01-10T08:20:01;2.80;99.90
29295;DHT22;16305;48.566;8.846;2023-01-10T08:22:26;2.70;99.90
29295;DHT22;16305;48.566;8.846;2023-01-10T08:24:52;2.80;99.90
29295;DHT22;16305;48.566;8.846;2023-01-10T08:27:18;2.80;99.90
29295;DHT22;16305;48.566;8.846;2023-01-10T08:29:43;2.80;99.90
29295;DHT22;16305;48.566;8.846;2023-01-10T08:32:09;2.80;99.90
29295;DHT22;16305;48.566;8.846;2023-01-10T08:34:35;2.80;99.90
29295;DHT22;16305;48.566;8.846;2023-01-10T08:37:01;2.80;99.90
29295;DHT22;16305;48.566;8.846;2023-01-10T08:39:27;2.80;99.90
29295;DHT22;16305;48.566;8.846;2023-01-10T08:41:54;2.80;99.90
29295;DHT22;16305;48.566;8.846;2023-01-10T08:44:20;2.90;99.90
29295;DHT22;16305;48.566;8.846;2023-01-10T08:46:46;2.90;99.90
29295;DHT22;16305;48.566;8.846;2023-01-10T08:49:12;2.90;99.90
29295;DHT22;16305;48.566;8.846;2023-01-10T08:51:37;2.90;99.90
29295;DHT22;16305;48.566;8.846;2023-01-10T08:54:03;3.00;99.90
29295;DHT22;16305;48.566;8.846;2023-01-10T08:56:28;3.00;99.90
29295;DHT22;16305;48.566;8.846;2023-01-10T08:58:54;3.00;99.90
29295;DHT22;16305;48.566;8.846;2023-01-10T09:01:20;3.00;99.90
29295;DHT22;16305;48.566;8.846;2023-01-10T09:03:46;3.00;99.90
29295;DHT22;16305;48.566;8.846;2023-01-10T09:06:11;3.10;99.90
29295;DHT22;16305;48.566;8.846;2023-01-10T09:08:37;3.10;99.90
29295;DHT22;16305;48.566;8.846;2023-01-10T09:11:04;3.10;99.90
29295;DHT22;16305;48.566;8.846;2023-01-10T09:13:31;3.10;99.90
29295;DHT22;16305;48.566;8.846;2023-01-10T09:15:57;3.10;99.90
29295;DHT22;16305;48.566;8.846;2023-01-10T09:18:23;3.10;99.90
29295;DHT22;16305;48.566;8.846;2023-01-10T09:20:49;3.20;99.90
29295;DHT22;16305;48.566;8.846;2023-01-10T09:23:17;3.20;99.90
29295;DHT22;16305;48.566;8.846;2023-01-10T09:25:49;3.30;99.90
29295;DHT22;16305;48.566;8.846;2023-01-10T09:28:16;3.40;99.90
29295;DHT22;16305;48.566;8.846;2023-01-10T09:30:42;3.50;99.90
29295;DHT22;16305;48.566;8.846;2023-01-10T09:33:08;3.40;99.90
29295;DHT22;16305;48.566;8.846;2023-01-10T09:35:36;3.50;99.90
29295;DHT22;16305;48.566;8.846;2023-01-10T09:38:02;3.50;99.90
29295;DHT22;16305;48.566;8.846;2023-01-10T09:43:23;3.60;99.90
29295;DHT22;16305;48.566;8.846;2023-01-10T09:48:55;3.70;99.90
29295;DHT22;16305;48.566;8.846;2023-01-10T09:53:58;3.70;99.90
29295;DHT22;16305;48.566;8.846;2023-01-10T09:56:27;3.60;99.90
29295;DHT22;16305;48.566;8.846;2023-01-10T09:58:53;3.70;99.90
29295;DHT22;16305;48.566;8.846;2023-01-10T10:01:23;3.70;99.90
29295;DHT22;16305;48.566;8.846;2023-01-10T10:04:01;3.80;99.90
29295;DHT22;16305;48.566;8.846;2023-01-10T10:06:29;3.80;99.90
29295;DHT22;16305;48.566;8.846;2023-01-10T10:08:56;3.90;99.90
29295;DHT22;16305;48.566;8.846;2023-01-10T10:16:46;3.90;99.90
29295;DHT22;16305;48.566;8.846;2023-01-10T10:33:46;4.10;99.90
29295;DHT22;16305;48.566;8.846;2023-01-10T10:36:23;4.10;99.90
29295;DHT22;16305;48.566;8.846;2023-01-10T10:38:52;4.10;99.90
29295;DHT22;16305;48.566;8.846;2023-01-10T10:41:36;4.10;99.90
29295;DHT22;16305;48.566;8.846;2023-01-10T10:46:57;4.20;99.90
29295;DHT22;16305;48.566;8.846;2023-01-10T10:51:59;4.30;99.90
29295;DHT22;16305;48.566;8.846;2023-01-10T10:54:26;4.20;99.90
29295;DHT22;16305;48.566;8.846;2023-01-10T10:56:53;4.20;99.90
29295;DHT22;16305;48.566;8.846;2023-01-10T10:59:20;4.40;99.90
29295;DHT22;16305;48.566;8.846;2023-01-10T11:01:47;4.30;99.90
29295;DHT22;16305;48.566;8.846;2023-01-10T11:04:18;4.50;99.90
29295;DHT22;16305;48.566;8.846;2023-01-10T11:06:45;4.50;99.90
29295;DHT22;16305;48.566;8.846;2023-01-10T11:09:16;4.50;99.90
29295;DHT22;16305;48.566;8.846;2023-01-10T11:12:14;4.50;99.90
29295;DHT22;16305;48.566;8.846;2023-01-10T11:17:23;4.50;99.90
29295;DHT22;16305;48.566;8.846;2023-01-10T11:19:57;4.50;99.90
29295;DHT22;16305;48.566;8.846;2023-01-10T11:22:25;4.50;99.90
29295;DHT22;16305;48.566;8.846;2023-01-10T11:24:54;4.50;99.90
29295;DHT22;16305;48.566;8.846;2023-01-10T11:27:28;4.60;99.90
29295;DHT22;16305;48.566;8.846;2023-01-10T11:29:58;4.60;99.90
29295;DHT22;16305;48.566;8.846;2023-01-10T11:32:37;4.60;99.90
29295;DHT22;16305;48.566;8.846;2023-01-10T11:35:18;4.60;99.90
29295;DHT22;16305;48.566;8.846;2023-01-10T11:38:02;4.60;99.90
29295;DHT22;16305;48.566;8.846;2023-01-10T11:40:33;4.70;99.90
29295;DHT22;16305;48.566;8.846;2023-01-10T11:43:22;4.70;99.90
29295;DHT22;16305;48.566;8.846;2023-01-10T11:45:54;4.80;99.90
29295;DHT22;16305;48.566;8.846;2023-01-10T11:48:22;4.80;99.90
29295;DHT22;16305;48.566;8.846;2023-01-10T11:50:53;4.70;99.90
29295;DHT22;16305;48.566;8.846;2023-01-10T11:53:39;4.80;99.90
29295;DHT22;16305;48.566;8.846;2023-01-10T11:56:09;5.20;99.90
29295;DHT22;16305;48.566;8.846;2023-01-10T11:58:36;5.30;99.90
29295;DHT22;16305;48.566;8.846;2023-01-10T12:01:02;6.10;99.90
29295;DHT22;16305;48.566;8.846;2023-01-10T12:03:31;6.20;99.90
29295;DHT22;16305;48.566;8.846;2023-01-10T12:08:29;5.10;99.90
29295;DHT22;16305;48.566;8.846;2023-01-10T12:11:01;5.10;99.90
29295;DHT22;16305;48.566;8.846;2023-01-10T12:13:28;5.20;99.90
29295;DHT22;16305;48.566;8.846;2023-01-10T12:16:28;5.00;99.90
29295;DHT22;16305;48.566;8.846;2023-01-10T12:18:57;5.10;99.90
29295;DHT22;16305;48.566;8.846;2023-01-10T12:21:43;5.10;99.90
29295;DHT22;16305;48.566;8.846;2023-01-10T12:24:21;5.20;99.90
29295;DHT22;16305;48.566;8.846;2023-01-10T12:26:47;5.20;99.90
29295;DHT22;16305;48.566;8.846;2023-01-10T12:29:20;5.40;99.90
29295;DHT22;16305;48.566;8.846;2023-01-10T12:31:50;5.50;99.90
29295;DHT22;16305;48.566;8.846;2023-01-10T12:34:19;5.40;99.90
29295;DHT22;16305;48.566;8.846;2023-01-10T12:43:06;5.30;99.90
29295;DHT22;16305;48.566;8.846;2023-01-10T12:45:59;6.00;99.90
29295;DHT22;16305;48.566;8.846;2023-01-10T12:48:34;6.60;99.90
29295;DHT22;16305;48.566;8.846;2023-01-10T12:51:11;6.60;99.90
29295;DHT22;16305;48.566;8.846;2023-01-10T12:53:47;6.50;99.90
29295;DHT22;16305;48.566;8.846;2023-01-10T12:56:15;6.20;99.90
29295;DHT22;16305;48.566;8.846;2023-01-10T12:58:49;5.70;99.90
29295;DHT22;16305;48.566;8.846;2023-01-10T13:01:20;5.70;99.90
29295;DHT22;16305;48.566;8.846;2023-01-10T13:03:53;5.30;99.90
29295;DHT22;16305;48.566;8.846;2023-01-10T13:06:27;5.10;99.90
29295;DHT22;16305;48.566;8.846;2023-01-10T13:08:53;5.00;99.90
29295;DHT22;16305;48.566;8.846;2023-01-10T13:11:21;5.50;99.90
29295;DHT22;16305;48.566;8.846;2023-01-10T13:13:55;6.40;99.90
29295;DHT22;16305;48.566;8.846;2023-01-10T13:16:35;6.50;99.90
29295;DHT22;16305;48.566;8.846;2023-01-10T13:21:37;7.40;99.90
29295;DHT22;16305;48.566;8.846;2023-01-10T13:26:51;7.10;99.90
29295;DHT22;16305;48.566;8.846;2023-01-10T13:29:43;7.50;99.90
29295;DHT22;16305;48.566;8.846;2023-01-10T13:32:29;7.00;99.90
29295;DHT22;16305;48.566;8.846;2023-01-10T13:35:08;7.10;99.90
29295;DHT22;16305;48.566;8.846;2023-01-10T13:37:37;6.90;99.90
29295;DHT22;16305;48.566;8.846;2023-01-10T13:40:04;7.50;99.90
29295;DHT22;16305;48.566;8.846;2023-01-10T13:45:27;6.90;99.90
29295;DHT22;16305;48.566;8.846;2023-01-10T14:01:37;7.10;99.90
29295;DHT22;16305;48.566;8.846;2023-01-10T14:04:24;6.50;99.90
29295;DHT22;16305;48.566;8.846;2023-01-10T14:09:44;6.20;99.90
29295;DHT22;16305;48.566;8.846;2023-01-10T14:15:03;6.90;99.90
29295;DHT22;16305;48.566;8.846;2023-01-10T14:17:32;6.80;99.90
29295;DHT22;16305;48.566;8.846;2023-01-10T14:20:16;6.50;99.90
29295;DHT22;16305;48.566;8.846;2023-01-10T14:22:57;6.60;99.90
29295;DHT22;16305;48.566;8.846;2023-01-10T14:25:25;6.30;99.90
29295;DHT22;16305;48.566;8.846;2023-01-10T14:27:51;6.00;99.90
29295;DHT22;16305;48.566;8.846;2023-01-10T14:30:40;5.70;99.90
29295;DHT22;16305;48.566;8.846;2023-01-10T14:33:12;5.60;99.90
29295;DHT22;16305;48.566;8.846;2023-01-10T14:35:43;5.30;99.90
29295;DHT22;16305;48.566;8.846;2023-01-10T14:38:25;5.20;99.90
29295;DHT22;16305;48.566;8.846;2023-01-10T14:40:56;5.20;99.90
29295;DHT22;16305;48.566;8.846;2023-01-10T14:43:24;5.10;99.90
29295;DHT22;16305;48.566;8.846;2023-01-10T14:46:05;5.00;99.90
29295;DHT22;16305;48.566;8.846;2023-01-10T14:48:40;5.00;99.90
29295;DHT22;16305;48.566;8.846;2023-01-10T14:53:43;5.00;99.90
29295;DHT22;16305;48.566;8.846;2023-01-10T14:56:23;4.90;99.90
29295;DHT22;16305;48.566;8.846;2023-01-10T14:58:49;4.80;99.90
29295;DHT22;16305;48.566;8.846;2023-01-10T15:01:21;4.80;99.90
29295;DHT22;16305;48.566;8.846;2023-01-10T15:03:47;4.70;99.90
29295;DHT22;16305;48.566;8.846;2023-01-10T15:06:13;4.70;99.90
29295;DHT22;16305;48.566;8.846;2023-01-10T15:08:39;4.70;99.90
29295;DHT22;16305;48.566;8.846;2023-01-10T15:11:06;4.80;99.90
29295;DHT22;16305;48.566;8.846;2023-01-10T15:13:36;4.70;99.90
29295;DHT22;16305;48.566;8.846;2023-01-10T15:16:05;4.60;99.90
29295;DHT22;16305;48.566;8.846;2023-01-10T15:18:43;4.60;99.90
29295;DHT22;16305;48.566;8.846;2023-01-10T15:21:11;4.60;99.90
29295;DHT22;16305;48.566;8.846;2023-01-10T15:23:45;4.60;99.90
29295;DHT22;16305;48.566;8.846;2023-01-10T15:26:13;4.60;99.90
29295;DHT22;16305;48.566;8.846;2023-01-10T15:28:41;4.50;99.90
29295;DHT22;16305;48.566;8.846;2023-01-10T15:31:07;4.50;99.90
29295;DHT22;16305;48.566;8.846;2023-01-10T15:33:35;4.40;99.90
29295;DHT22;16305;48.566;8.846;2023-01-10T15:36:04;4.50;99.90
29295;DHT22;16305;48.566;8.846;2023-01-10T15:38:30;4.40;99.90
29295;DHT22;16305;48.566;8.846;2023-01-10T15:41:03;4.40;99.90
29295;DHT22;16305;48.566;8.846;2023-01-10T15:43:34;4.40;99.90
29295;DHT22;16305;48.566;8.846;2023-01-10T15:46:02;4.30;99.90
29295;DHT22;16305;48.566;8.846;2023-01-10T15:48:40;4.30;99.90
29295;DHT22;16305;48.566;8.846;2023-01-10T15:51:27;4.30;99.90
29295;DHT22;16305;48.566;8.846;2023-01-10T15:54:03;4.30;99.90
29295;DHT22;16305;48.566;8.846;2023-01-10T15:58:59;4.20;99.90
29295;DHT22;16305;48.566;8.846;2023-01-10T16:01:25;4.10;99.90
29295;DHT22;16305;48.566;8.846;2023-01-10T16:03:53;4.10;99.90
29295;DHT22;16305;48.566;8.846;2023-01-10T16:08:52;3.90;99.90
29295;DHT22;16305;48.566;8.846;2023-01-10T16:11:25;3.90;99.90
29295;DHT22;16305;48.566;8.846;2023-01-10T16:14:10;3.90;99.90
29295;DHT22;16305;48.566;8.846;2023-01-10T16:16:38;3.90;99.90
29295;DHT22;16305;48.566;8.846;2023-01-10T16:19:03;3.90;99.90
29295;DHT22;16305;48.566;8.846;2023-01-10T16:21:40;3.80;99.90
29295;DHT22;16305;48.566;8.846;2023-01-10T16:24:17;3.80;99.90
29295;DHT22;16305;48.566;8.846;2023-01-10T16:26:43;3.70;99.90
29295;DHT22;16305;48.566;8.846;2023-01-10T16:29:09;3.80;99.90
29295;DHT22;16305;48.566;8.846;2023-01-10T16:31:35;3.70;99.90
29295;DHT22;16305;48.566;8.846;2023-01-10T16:34:01;3.70;99.90
29295;DHT22;16305;48.566;8.846;2023-01-10T16:36:27;3.60;99.90
29295;DHT22;16305;48.566;8.846;2023-01-10T16:38:53;3.60;99.90
29295;DHT22;16305;48.566;8.846;2023-01-10T16:41:18;3.60;99.90
29295;DHT22;16305;48.566;8.846;2023-01-10T16:44:03;3.60;99.90
29295;DHT22;16305;48.566;8.846;2023-01-10T16:46:28;3.60;99.90
29295;DHT22;16305;48.566;8.846;2023-01-10T16:48:54;3.60;99.90
29295;DHT22;16305;48.566;8.846;2023-01-10T16:51:28;3.60;99.90
29295;DHT22;16305;48.566;8.846;2023-01-10T16:53:56;3.50;99.90
29295;DHT22;16305;48.566;8.846;2023-01-10T16:56:24;3.50;99.90
29295;DHT22;16305;48.566;8.846;2023-01-10T16:58:51;3.50;99.90
29295;DHT22;16305;48.566;8.846;2023-01-10T17:01:20;3.50;99.90
29295;DHT22;16305;48.566;8.846;2023-01-10T17:03:49;3.40;99.90
29295;DHT22;16305;48.566;8.846;2023-01-10T17:06:15;3.40;99.90
29295;DHT22;16305;48.566;8.846;2023-01-10T17:08:42;3.40;99.90
29295;DHT22;16305;48.566;8.846;2023-01-10T17:11:18;3.40;99.90
29295;DHT22;16305;48.566;8.846;2023-01-10T17:13:45;3.40;99.90
29295;DHT22;16305;48.566;8.846;2023-01-10T17:16:11;3.40;99.90
29295;DHT22;16305;48.566;8.846;2023-01-10T17:18:37;3.40;99.90
29295;DHT22;16305;48.566;8.846;2023-01-10T17:21:04;3.40;99.90
29295;DHT22;16305;48.566;8.846;2023-01-10T17:23:29;3.40;99.90
29295;DHT22;16305;48.566;8.846;2023-01-10T17:26:03;3.40;99.90
29295;DHT22;16305;48.566;8.846;2023-01-10T17:28:29;3.40;99.90
29295;DHT22;16305;48.566;8.846;2023-01-10T17:30:55;3.40;99.90
29295;DHT22;16305;48.566;8.846;2023-01-10T17:33:22;3.40;99.90
29295;DHT22;16305;48.566;8.846;2023-01-10T17:35:47;3.40;99.90
29295;DHT22;16305;48.566;8.846;2023-01-10T17:38:15;3.40;99.90
29295;DHT22;16305;48.566;8.846;2023-01-10T17:40:41;3.40;99.90